This is the latest recevied weather packets stored in our database for station/object AD6NH. If no packets are shown the sender has not sent any weather packets the latest 10 day(s).
| Time | Temp. | Humidity | Pressure | Rain* | Wind** | Luminosity | Snow |
|---|---|---|---|---|---|---|---|
| 1777926422 | 21.11° C | 50% | 1016.2 hPa | 0 mm | - | - | - |
| 1777925822 | 20° C | 52% | 1016.4 hPa | 0 mm | - | - | - |
| 1777925222 | 21.67° C | 50% | 1016.4 hPa | 0 mm | - | - | - |
| 1777924622 | 21.67° C | 48% | 1016.6 hPa | 0 mm | - | - | - |
| 1777924022 | 21.67° C | 50% | 1016.5 hPa | 0 mm | - | - | - |
| 1777923422 | 20° C | 52% | 1016.7 hPa | 0 mm | - | - | - |
| 1777922822 | 20° C | 53% | 1016.8 hPa | 0 mm | - | - | - |
| 1777922222 | 20° C | 53% | 1016.6 hPa | 0 mm | - | - | - |
| 1777921622 | 19.44° C | 54% | 1016.6 hPa | 0 mm | - | - | - |
| 1777921022 | 19.44° C | 54% | 1016.8 hPa | 0 mm | - | - | - |
| 1777920422 | 18.89° C | 55% | 1016.7 hPa | 0 mm | - | - | - |
| 1777919823 | 18.89° C | 56% | 1016.7 hPa | 0 mm | - | - | - |
| 1777919222 | 19.44° C | 51% | 1016.7 hPa | 0 mm | - | - | - |
| 1777918622 | 20° C | 50% | 1016.7 hPa | 0 mm | - | - | - |
| 1777918022 | 19.44° C | 52% | 1016.8 hPa | 0 mm | - | - | - |
| 1777917422 | 19.44° C | 49% | 1016.7 hPa | 0 mm | - | - | - |
| 1777916822 | 19.44° C | 51% | 1016.6 hPa | 0 mm | - | - | - |
| 1777916222 | 20.56° C | 50% | 1016.6 hPa | 0 mm | - | - | - |
| 1777915622 | 19.44° C | 52% | 1016.6 hPa | 0 mm | - | - | - |
| 1777915023 | 20.56° C | 49% | 1016.5 hPa | 0 mm | - | - | - |
| 1777914422 | 20° C | 49% | 1016.5 hPa | 0 mm | - | - | - |
| 1777913822 | 18.89° C | 53% | 1016.5 hPa | 0 mm | - | - | - |
| 1777913222 | 18.89° C | 53% | 1016.6 hPa | 0 mm | - | - | - |
| 1777912622 | 18.33° C | 55% | 1016.5 hPa | 0 mm | - | - | - |
| 1777912022 | 18.33° C | 55% | 1016.4 hPa | 0 mm | - | - | - |
* Rain latest hour (hover to see other rain measurements)
** Current wind speed in m/s (hover to see current wind gust speed)